Time;durP1;ratioP1;P1;durP2;ratioP2;P2;SDS_P1;SDS_P2;PMS_P1;PMS_P2;Temp;Humidity;BMP_temperature;BMP_pressure;BME280_temperature;BME280_humidity;BME280_pressure;Samples;Min_cycle;Max_cycle;Signal;HPM_P1;HPM_P2
2022/10/29 00:00:13;;;;;;;14.43;6.57;;;17.50;1.00;;;;;;6304069;22;20433;-83
2022/10/29 00:02:42;;;;;;;11.30;6.47;;;17.50;1.00;;;;;;6319017;22;20422;-88
2022/10/29 00:05:14;;;;;;;17.93;6.50;;;17.50;1.00;;;;;;6282078;22;20401;-81
2022/10/29 00:07:55;;;;;;;13.23;7.47;;;17.50;1.00;;;;;;6289809;22;20596;-83
2022/10/29 00:10:52;;;;;;;16.37;6.10;;;17.50;1.00;;;;;;6291069;22;20430;-87
2022/10/29 00:13:23;;;;;;;14.93;6.77;;;17.50;1.00;;;;;;6292228;22;20447;-88
2022/10/29 00:15:53;;;;;;;11.97;6.60;;;17.50;1.00;;;;;;6293290;22;20403;-88
2022/10/29 00:18:23;;;;;;;14.07;6.80;;;17.40;1.00;;;;;;6305908;22;20459;-88
2022/10/29 00:21:03;;;;;;;14.30;6.90;;;17.40;1.00;;;;;;6270781;22;20447;-83
2022/10/29 00:23:34;;;;;;;14.97;7.37;;;17.40;1.00;;;;;;6304860;22;20399;-82
2022/10/29 00:26:04;;;;;;;16.67;7.60;;;17.40;1.00;;;;;;6297786;22;20456;-88
2022/10/29 00:28:35;;;;;;;13.43;7.10;;;17.40;1.00;;;;;;6289882;22;20381;-88
2022/10/29 00:31:05;;;;;;;12.83;6.93;;;17.40;1.00;;;;;;6292547;22;20458;-88
2022/10/29 00:33:33;;;;;;;18.50;6.30;;;17.40;1.00;;;;;;6291262;22;20440;-84
2022/10/29 00:36:07;;;;;;;12.47;6.30;;;17.40;1.00;;;;;;6280168;22;20396;-84
2022/10/29 00:38:35;;;;;;;15.17;7.23;;;17.40;1.00;;;;;;6282155;22;20502;-83
2022/10/29 00:41:25;;;;;;;13.80;6.23;;;17.50;1.00;;;;;;6262805;22;20491;-82
2022/10/29 00:44:34;;;;;;;13.33;6.47;;;17.50;1.00;;;;;;6286154;22;20401;-84
2022/10/29 00:47:24;;;;;;;17.73;7.47;;;17.40;1.00;;;;;;6302838;22;20401;-82
2022/10/29 00:49:59;;;;;;;13.97;6.47;;;17.40;1.00;;;;;;6301378;22;20521;-84
2022/10/29 00:52:30;;;;;;;15.50;6.90;;;17.30;1.00;;;;;;6291770;22;20412;-86
2022/10/29 00:55:14;;;;;;;14.30;7.20;;;17.30;1.00;;;;;;6234918;22;20414;-83
2022/10/29 00:57:51;;;;;;;15.33;7.20;;;17.30;1.00;;;;;;6303299;22;20428;-86
2022/10/29 01:00:21;;;;;;;12.23;6.63;;;17.30;1.00;;;;;;6292315;22;20455;-86
2022/10/29 01:02:57;;;;;;;15.33;7.27;;;17.30;1.00;;;;;;6302660;22;20548;-87
2022/10/29 01:05:25;;;;;;;13.30;7.17;;;17.20;1.00;;;;;;6322061;22;20426;-82
2022/10/29 01:07:56;;;;;;;12.83;6.73;;;17.20;1.00;;;;;;6320408;22;20431;-86
2022/10/29 01:10:39;;;;;;;12.77;6.57;;;17.30;1.00;;;;;;6313080;22;20511;-86
2022/10/29 01:13:37;;;;;;;15.07;7.20;;;17.20;1.00;;;;;;6294886;22;20450;-86
2022/10/29 01:16:19;;;;;;;15.77;7.63;;;17.20;1.00;;;;;;6309397;22;20417;-81
2022/10/29 01:19:02;;;;;;;14.60;7.70;;;17.10;1.00;;;;;;6324318;22;20424;-82
2022/10/29 01:21:44;;;;;;;17.80;8.47;;;17.00;1.00;;;;;;6325377;22;20450;-87
2022/10/29 01:24:43;;;;;;;15.27;7.50;;;17.00;1.00;;;;;;6325640;22;20383;-85
2022/10/29 01:27:43;;;;;;;15.37;7.40;;;17.00;1.00;;;;;;6290659;22;20391;-82
2022/10/29 01:30:23;;;;;;;12.50;6.77;;;17.00;1.00;;;;;;6335716;22;20378;-88
2022/10/29 01:33:06;;;;;;;13.27;6.90;;;17.00;1.00;;;;;;6322506;22;20572;-82
2022/10/29 01:35:43;;;;;;;17.53;7.00;;;16.90;1.00;;;;;;6323603;22;21879;-87
2022/10/29 01:38:27;;;;;;;14.03;6.50;;;16.90;1.00;;;;;;6326496;22;20401;-84
2022/10/29 01:41:03;;;;;;;13.20;6.97;;;16.90;1.00;;;;;;6311902;22;20513;-86
2022/10/29 01:46:31;;;;;;;18.20;7.87;;;16.80;1.00;;;;;;6256804;22;20473;-83
2022/10/29 01:49:25;;;;;;;13.50;7.27;;;16.80;1.00;;;;;;6306248;22;20433;-82
2022/10/29 01:52:02;;;;;;;15.53;7.03;;;16.70;1.00;;;;;;6295019;22;20418;-82
2022/10/29 01:54:34;;;;;;;15.70;8.30;;;16.70;1.00;;;;;;6343335;22;20400;-86
2022/10/29 01:57:05;;;;;;;15.00;7.80;;;16.70;1.00;;;;;;6289415;22;20418;-82
2022/10/29 01:59:42;;;;;;;16.83;6.83;;;16.70;1.00;;;;;;6295337;22;20389;-82
2022/10/29 02:02:44;;;;;;;13.20;7.03;;;16.60;1.00;;;;;;6284762;22;20422;-86
2022/10/29 02:05:32;;;;;;;13.33;6.87;;;16.60;1.00;;;;;;6285913;22;20392;-84
2022/10/29 02:08:23;;;;;;;20.63;8.67;;;16.50;1.00;;;;;;6292161;22;20410;-80
2022/10/29 02:11:13;;;;;;;15.20;7.37;;;16.50;1.00;;;;;;6285868;22;20423;-85
2022/10/29 02:13:54;;;;;;;12.30;6.63;;;16.50;1.00;;;;;;6291729;22;20407;-83
2022/10/29 02:16:23;;;;;;;22.80;8.13;;;16.50;1.00;;;;;;6269795;22;20527;-81
2022/10/29 02:18:53;;;;;;;17.73;7.80;;;16.40;1.00;;;;;;6279484;22;21114;-84
2022/10/29 02:21:24;;;;;;;14.30;7.10;;;16.40;1.00;;;;;;6290049;22;20397;-81
2022/10/29 02:23:59;;;;;;;17.43;7.80;;;16.40;1.00;;;;;;6300585;22;20401;-82
2022/10/29 02:26:32;;;;;;;15.80;7.73;;;16.30;1.00;;;;;;6288380;22;20437;-81
2022/10/29 02:28:59;;;;;;;15.80;7.97;;;16.30;1.00;;;;;;6285064;22;20434;-85
2022/10/29 02:31:25;;;;;;;16.30;9.90;;;16.40;1.00;;;;;;6289136;22;20422;-81
2022/10/29 02:33:53;;;;;;;14.93;7.13;;;16.40;1.00;;;;;;6284678;22;20385;-81
2022/10/29 02:36:32;;;;;;;18.17;7.87;;;16.30;1.00;;;;;;6289834;22;20425;-81
2022/10/29 02:38:59;;;;;;;18.63;8.37;;;16.30;1.00;;;;;;6268850;22;20420;-84
2022/10/29 02:41:26;;;;;;;13.93;7.70;;;16.30;1.00;;;;;;6310540;22;20464;-82
2022/10/29 02:43:54;;;;;;;13.67;7.03;;;16.40;1.00;;;;;;6292558;22;20390;-84
2022/10/29 02:46:22;;;;;;;14.77;7.17;;;16.40;1.00;;;;;;6284626;22;21015;-85
2022/10/29 02:48:56;;;;;;;16.53;7.87;;;16.40;1.00;;;;;;6286737;22;20386;-81
2022/10/29 02:51:22;;;;;;;18.30;7.03;;;16.50;1.00;;;;;;6288854;22;20945;-82
2022/10/29 02:53:52;;;;;;;13.97;7.63;;;16.50;1.00;;;;;;6286545;22;20385;-82
2022/10/29 02:56:19;;;;;;;19.73;7.90;;;16.50;1.00;;;;;;6287059;22;20493;-81
2022/10/29 02:58:46;;;;;;;14.13;6.50;;;16.50;1.00;;;;;;6274175;22;20514;-85
2022/10/29 03:01:13;;;;;;;15.53;7.43;;;16.50;1.00;;;;;;6310613;22;20421;-86
2022/10/29 03:03:43;;;;;;;17.87;8.20;;;16.50;1.00;;;;;;6301261;22;20405;-88
2022/10/29 03:06:13;;;;;;;20.80;7.27;;;16.50;1.00;;;;;;6293436;22;20441;-85
2022/10/29 03:08:43;;;;;;;16.77;9.53;;;16.50;1.00;;;;;;6301988;22;20408;-85
2022/10/29 03:11:13;;;;;;;14.50;8.57;;;16.50;1.00;;;;;;6321798;22;20843;-85
2022/10/29 03:13:43;;;;;;;15.50;8.07;;;16.40;1.00;;;;;;6309690;22;20407;-85
2022/10/29 03:16:15;;;;;;;15.83;7.13;;;16.40;1.00;;;;;;6299767;22;20393;-86
2022/10/29 03:18:53;;;;;;;15.60;8.07;;;16.30;1.00;;;;;;6306991;22;20928;-85
2022/10/29 03:21:21;;;;;;;16.13;7.57;;;16.30;1.00;;;;;;6311115;22;20419;-81
2022/10/29 03:23:52;;;;;;;19.17;8.90;;;16.30;1.00;;;;;;6314447;22;20455;-81
2022/10/29 03:26:21;;;;;;;11.63;6.80;;;16.30;1.00;;;;;;6322774;22;20423;-81
2022/10/29 03:28:55;;;;;;;13.63;7.30;;;16.20;1.00;;;;;;6321221;22;20437;-81
2022/10/29 03:31:21;;;;;;;14.03;7.30;;;16.20;1.00;;;;;;6318674;22;21055;-83
2022/10/29 03:33:48;;;;;;;13.40;7.80;;;16.20;1.00;;;;;;6314864;22;20858;-82
2022/10/29 03:36:15;;;;;;;14.87;7.90;;;16.20;1.00;;;;;;6314943;22;20892;-82
2022/10/29 03:38:45;;;;;;;17.27;8.33;;;16.20;1.00;;;;;;6326493;22;20423;-85
2022/10/29 03:41:14;;;;;;;17.17;8.33;;;16.10;1.00;;;;;;6292667;22;20398;-86
2022/10/29 03:43:47;;;;;;;11.27;6.67;;;16.10;1.00;;;;;;6300439;22;20408;-84
2022/10/29 03:46:15;;;;;;;15.77;7.70;;;16.10;1.00;;;;;;6299857;22;20485;-79
2022/10/29 03:48:52;;;;;;;17.40;8.40;;;16.00;1.00;;;;;;6322352;22;20408;-86
2022/10/29 03:51:27;;;;;;;15.03;7.97;;;15.90;1.00;;;;;;6312723;22;20462;-86
2022/10/29 03:54:03;;;;;;;15.80;7.30;;;15.90;1.00;;;;;;6302568;22;20373;-85
2022/10/29 03:56:34;;;;;;;15.63;8.50;;;15.80;1.00;;;;;;6255269;22;20373;-87
2022/10/29 03:59:06;;;;;;;18.00;9.10;;;15.80;1.00;;;;;;6276779;22;20402;-87
2022/10/29 04:01:36;;;;;;;16.73;8.03;;;15.80;1.00;;;;;;6295634;22;20395;-86
2022/10/29 04:04:05;;;;;;;16.60;7.90;;;15.80;1.00;;;;;;6334142;22;20424;-86
2022/10/29 04:06:33;;;;;;;15.97;8.53;;;15.80;1.00;;;;;;6304486;22;20476;-86
2022/10/29 04:09:13;;;;;;;17.27;8.43;;;15.80;1.00;;;;;;6323309;22;20425;-86
2022/10/29 04:11:39;;;;;;;17.23;8.80;;;15.70;1.00;;;;;;6323182;22;20495;-88
2022/10/29 04:14:15;;;;;;;15.90;8.50;;;15.70;1.00;;;;;;6321936;22;20426;-87
2022/10/29 04:16:44;;;;;;;20.13;8.97;;;15.70;1.00;;;;;;6319135;22;20424;-84
2022/10/29 04:19:15;;;;;;;13.73;7.23;;;15.70;1.00;;;;;;6321692;22;20420;-87
2022/10/29 04:21:46;;;;;;;18.57;9.30;;;15.70;1.00;;;;;;6320778;22;20414;-86
2022/10/29 04:24:14;;;;;;;21.50;8.70;;;15.70;1.00;;;;;;6298965;22;20385;-85
2022/10/29 04:26:44;;;;;;;14.90;8.20;;;15.70;1.00;;;;;;6321727;22;20490;-85
2022/10/29 04:29:18;;;;;;;18.47;8.13;;;15.50;1.00;;;;;;6322971;22;20459;-85
2022/10/29 04:31:46;;;;;;;16.97;8.90;;;15.50;1.00;;;;;;6306671;22;20393;-84
2022/10/29 04:34:14;;;;;;;14.30;9.27;;;15.50;1.00;;;;;;6320858;22;20394;-81
2022/10/29 04:36:43;;;;;;;14.50;8.87;;;15.50;1.00;;;;;;6314758;22;20428;-81
2022/10/29 04:39:22;;;;;;;19.17;9.50;;;15.40;1.00;;;;;;6316067;22;20441;-80
2022/10/29 04:41:52;;;;;;;16.10;8.07;;;15.40;1.00;;;;;;6317973;22;20404;-82
2022/10/29 04:44:23;;;;;;;15.23;8.70;;;15.40;1.00;;;;;;6321012;22;20459;-85
2022/10/29 04:47:01;;;;;;;18.80;9.93;;;15.40;1.00;;;;;;6322870;22;20428;-85
2022/10/29 04:49:27;;;;;;;18.13;9.57;;;15.40;1.00;;;;;;6317638;22;20963;-86
2022/10/29 04:51:58;;;;;;;20.13;10.33;;;15.30;1.00;;;;;;6319915;22;20408;-81
2022/10/29 04:54:24;;;;;;;19.83;9.97;;;15.20;1.00;;;;;;6318007;22;21004;-81
2022/10/29 04:56:55;;;;;;;21.70;9.83;;;15.30;1.00;;;;;;6314913;22;20378;-83
2022/10/29 04:59:23;;;;;;;14.27;8.30;;;15.20;1.00;;;;;;6319039;22;20504;-85
2022/10/29 05:02:04;;;;;;;19.40;9.00;;;15.20;1.00;;;;;;6320804;22;20389;-82
2022/10/29 05:04:35;;;;;;;52.00;20.10;;;15.20;1.00;;;;;;6321639;22;20396;-85
2022/10/29 05:07:02;;;;;;;22.33;11.13;;;15.20;1.00;;;;;;6320172;22;20863;-81
2022/10/29 05:09:29;;;;;;;24.07;11.47;;;15.30;1.00;;;;;;6319321;22;20433;-80
2022/10/29 05:11:57;;;;;;;17.53;8.87;;;15.20;1.00;;;;;;6315454;22;20392;-81
2022/10/29 05:14:26;;;;;;;17.27;9.97;;;15.20;1.00;;;;;;6316621;22;20809;-81
2022/10/29 05:17:05;;;;;;;19.07;10.70;;;15.20;1.00;;;;;;6317423;22;20448;-80
2022/10/29 05:19:35;;;;;;;26.60;14.27;;;15.20;1.00;;;;;;6324314;22;20458;-85
2022/10/29 05:22:07;;;;;;;16.80;9.00;;;15.20;1.00;;;;;;6317631;22;20445;-86
2022/10/29 05:24:46;;;;;;;14.70;9.57;;;15.20;1.00;;;;;;6326124;22;20435;-87
2022/10/29 05:27:19;;;;;;;18.57;9.73;;;15.20;1.00;;;;;;6317007;22;20427;-87
2022/10/29 05:30:08;;;;;;;22.93;12.07;;;15.20;1.00;;;;;;6336083;22;20513;-86
2022/10/29 05:32:35;;;;;;;19.03;9.90;;;15.20;1.00;;;;;;6332100;22;20412;-85
2022/10/29 05:35:10;;;;;;;17.00;9.60;;;15.20;1.00;;;;;;6322898;22;20438;-86
2022/10/29 05:37:37;;;;;;;19.80;11.10;;;15.20;1.00;;;;;;6326322;22;20470;-86
2022/10/29 05:40:08;;;;;;;21.37;10.50;;;15.20;1.00;;;;;;6325818;22;20386;-79
2022/10/29 05:42:37;;;;;;;16.93;9.10;;;15.20;1.00;;;;;;6317142;22;20904;-81
2022/10/29 05:45:11;;;;;;;18.43;9.13;;;15.20;1.00;;;;;;6318431;22;20508;-81
2022/10/29 05:47:38;;;;;;;16.13;8.57;;;15.30;1.00;;;;;;6318403;22;20499;-81
2022/10/29 05:50:07;;;;;;;20.23;8.60;;;15.20;1.00;;;;;;6321742;22;20435;-81
2022/10/29 05:52:37;;;;;;;16.97;9.43;;;15.20;1.00;;;;;;6320764;22;20436;-80
2022/10/29 05:55:08;;;;;;;16.77;9.43;;;15.10;1.00;;;;;;6282098;22;20415;-81
2022/10/29 05:57:36;;;;;;;18.20;8.63;;;15.10;1.00;;;;;;6340766;22;20452;-80
2022/10/29 06:00:09;;;;;;;16.63;9.27;;;15.10;1.00;;;;;;6324599;22;20464;-85
2022/10/29 06:02:37;;;;;;;19.73;9.90;;;15.10;1.00;;;;;;6323721;22;20520;-82
2022/10/29 06:05:08;;;;;;;17.50;9.27;;;15.10;1.00;;;;;;6322345;22;20401;-81
2022/10/29 06:07:37;;;;;;;18.33;10.13;;;15.10;1.00;;;;;;6324808;22;20460;-87
2022/10/29 06:10:07;;;;;;;20.47;8.90;;;15.10;1.00;;;;;;6324493;22;20448;-85
2022/10/29 06:12:37;;;;;;;20.10;10.07;;;15.10;1.00;;;;;;6323005;22;20437;-85
2022/10/29 06:15:07;;;;;;;15.47;9.23;;;15.10;1.00;;;;;;6324993;22;20724;-86
2022/10/29 06:17:39;;;;;;;16.97;9.10;;;15.10;1.00;;;;;;6323197;22;20376;-82
2022/10/29 06:20:15;;;;;;;20.47;10.77;;;15.10;1.00;;;;;;6276926;22;20488;-87
2022/10/29 06:22:47;;;;;;;15.73;10.07;;;15.10;1.00;;;;;;6319563;22;20412;-86
2022/10/29 06:25:20;;;;;;;17.43;9.40;;;15.20;1.00;;;;;;6322976;22;20404;-86
2022/10/29 06:27:48;;;;;;;22.53;11.33;;;15.20;1.00;;;;;;6322026;22;20566;-86
2022/10/29 06:30:17;;;;;;;18.90;9.97;;;15.20;1.00;;;;;;6302304;22;20407;-86
2022/10/29 06:32:47;;;;;;;18.63;10.37;;;15.20;1.00;;;;;;6319318;22;20384;-85
2022/10/29 06:35:18;;;;;;;20.57;10.40;;;15.30;1.00;;;;;;6325913;22;20396;-83
2022/10/29 06:37:49;;;;;;;23.27;11.63;;;15.30;1.00;;;;;;6322446;22;20508;-82
2022/10/29 06:40:16;;;;;;;21.03;11.50;;;15.40;1.00;;;;;;6320145;22;20427;-89
2022/10/29 06:42:45;;;;;;;17.53;10.27;;;15.40;1.00;;;;;;6327091;22;20433;-86
2022/10/29 06:45:17;;;;;;;19.53;9.70;;;15.40;1.00;;;;;;6316938;22;20959;-87
2022/10/29 06:47:48;;;;;;;21.93;10.80;;;15.40;1.00;;;;;;6325271;22;20428;-86
2022/10/29 06:50:19;;;;;;;19.67;10.37;;;15.40;1.00;;;;;;6326007;22;20428;-83
2022/10/29 06:53:07;;;;;;;24.87;11.97;;;15.50;1.00;;;;;;6323601;22;20398;-82
2022/10/29 06:55:37;;;;;;;19.23;10.33;;;15.50;1.00;;;;;;6326270;22;20421;-87
2022/10/29 06:58:18;;;;;;;23.43;11.90;;;15.50;1.00;;;;;;6323380;22;20377;-86
2022/10/29 07:00:49;;;;;;;16.87;10.30;;;15.60;1.00;;;;;;6324071;22;20401;-87
2022/10/29 07:03:27;;;;;;;15.83;9.93;;;15.70;1.00;;;;;;6327889;22;20420;-85
2022/10/29 07:05:58;;;;;;;20.33;11.40;;;15.80;1.00;;;;;;6324767;22;20385;-86
2022/10/29 07:08:33;;;;;;;16.00;8.93;;;15.90;1.00;;;;;;6327922;22;20479;-85
2022/10/29 07:11:01;;;;;;;21.17;10.80;;;16.00;1.00;;;;;;6323349;22;20458;-80
2022/10/29 07:13:29;;;;;;;16.70;10.47;;;16.10;1.00;;;;;;6320848;22;20506;-86
2022/10/29 07:15:57;;;;;;;21.33;11.03;;;16.20;1.00;;;;;;6320521;22;21188;-85
2022/10/29 07:18:27;;;;;;;17.27;9.40;;;16.20;1.00;;;;;;6321673;22;20382;-84
2022/10/29 07:20:57;;;;;;;16.97;9.50;;;16.30;1.00;;;;;;6319152;22;20432;-81
2022/10/29 07:23:39;;;;;;;17.17;9.13;;;16.30;1.00;;;;;;6320183;22;20373;-82
2022/10/29 07:26:08;;;;;;;13.90;8.77;;;16.40;1.00;;;;;;6322942;22;20467;-84
2022/10/29 07:28:39;;;;;;;16.80;9.57;;;16.50;1.00;;;;;;6326275;22;20445;-85
2022/10/29 07:31:08;;;;;;;23.73;10.63;;;16.60;1.00;;;;;;6326605;22;20401;-81
2022/10/29 07:33:37;;;;;;;24.10;11.17;;;16.60;1.00;;;;;;6325337;22;20516;-83
2022/10/29 07:36:08;;;;;;;19.27;10.37;;;16.70;1.00;;;;;;6308544;22;20412;-78
2022/10/29 07:38:40;;;;;;;19.50;10.07;;;16.70;1.00;;;;;;6339602;22;20451;-81
2022/10/29 07:41:08;;;;;;;18.83;10.10;;;16.80;1.00;;;;;;6322024;22;20532;-82
2022/10/29 07:43:41;;;;;;;18.07;10.00;;;16.80;1.00;;;;;;6325487;22;20382;-85
2022/10/29 07:46:09;;;;;;;16.03;8.50;;;16.80;1.00;;;;;;6325829;22;20807;-84
2022/10/29 07:48:40;;;;;;;16.47;8.87;;;16.70;1.00;;;;;;6325079;22;20374;-81
2022/10/29 07:51:07;;;;;;;18.33;9.00;;;16.90;1.00;;;;;;6318015;22;21016;-80
2022/10/29 07:53:39;;;;;;;20.90;9.20;;;17.00;1.00;;;;;;6319571;22;20394;-80
2022/10/29 07:56:07;;;;;;;21.27;11.13;;;17.10;1.00;;;;;;6317495;22;21263;-81
2022/10/29 07:58:37;;;;;;;14.37;9.20;;;17.30;1.00;;;;;;6323903;22;20394;-83
2022/10/29 08:01:10;;;;;;;16.30;9.00;;;17.50;1.00;;;;;;6320726;22;20516;-82
2022/10/29 08:03:41;;;;;;;19.53;9.50;;;17.50;1.00;;;;;;6327185;22;20405;-81
2022/10/29 08:06:09;;;;;;;16.33;8.60;;;17.60;1.00;;;;;;6322747;22;20487;-80
2022/10/29 08:08:36;;;;;;;17.33;9.30;;;17.70;1.00;;;;;;6323984;22;20456;-80
2022/10/29 08:11:07;;;;;;;20.13;9.60;;;17.80;1.00;;;;;;6319751;22;20504;-81
2022/10/29 08:13:38;;;;;;;17.10;9.50;;;17.80;1.00;;;;;;6320914;22;20427;-81
2022/10/29 08:16:08;;;;;;;15.50;9.63;;;18.00;1.00;;;;;;6322751;22;20404;-83
2022/10/29 08:18:37;;;;;;;18.93;9.33;;;18.00;1.00;;;;;;6328403;22;20457;-83
2022/10/29 08:21:06;;;;;;;18.17;8.60;;;18.10;1.00;;;;;;6327145;22;20456;-82
2022/10/29 08:23:39;;;;;;;19.80;8.90;;;18.20;1.00;;;;;;6323720;22;20390;-83
2022/10/29 08:26:06;;;;;;;17.03;10.17;;;18.30;1.00;;;;;;6319051;22;20398;-81
2022/10/29 08:28:37;;;;;;;16.40;8.53;;;18.40;1.00;;;;;;6322890;22;20399;-83
2022/10/29 08:31:05;;;;;;;15.53;8.83;;;18.50;1.00;;;;;;6319738;22;20446;-81
2022/10/29 08:33:32;;;;;;;18.50;8.00;;;18.50;1.00;;;;;;6319719;22;20418;-81
2022/10/29 08:36:04;;;;;;;14.50;8.70;;;18.50;1.00;;;;;;6317156;22;20430;-83
2022/10/29 08:38:30;;;;;;;16.60;9.03;;;18.70;1.00;;;;;;6321468;22;20460;-81
2022/10/29 08:41:26;;;;;;;18.20;9.87;;;18.80;1.00;;;;;;6317758;22;20400;-82
2022/10/29 08:44:24;;;;;;;22.87;9.53;;;18.90;1.00;;;;;;6321402;22;20460;-85
2022/10/29 08:47:04;;;;;;;22.60;9.80;;;19.10;1.00;;;;;;6321243;22;20419;-81
2022/10/29 08:49:40;;;;;;;17.00;8.40;;;19.20;1.00;;;;;;6325808;22;20449;-82
2022/10/29 08:52:29;;;;;;;20.07;9.07;;;19.30;1.00;;;;;;6326586;22;20795;-81
2022/10/29 08:55:19;;;;;;;19.87;9.33;;;19.50;1.00;;;;;;6321697;22;20402;-85
2022/10/29 08:57:56;;;;;;;17.73;9.40;;;19.70;1.00;;;;;;6321203;22;20412;-82
2022/10/29 09:00:37;;;;;;;16.83;8.90;;;19.80;1.00;;;;;;6326036;22;20398;-84
2022/10/29 09:03:18;;;;;;;17.20;8.27;;;19.90;1.00;;;;;;6320646;22;20426;-81
2022/10/29 09:05:57;;;;;;;21.40;9.90;;;20.00;1.00;;;;;;6323268;22;20388;-82
2022/10/29 09:08:47;;;;;;;18.00;9.10;;;20.20;1.00;;;;;;6327565;22;20408;-83
2022/10/29 09:11:37;;;;;;;16.07;9.63;;;20.40;1.00;;;;;;6328742;22;20439;-80
2022/10/29 09:14:28;;;;;;;22.23;10.50;;;20.60;1.00;;;;;;6324075;22;20403;-82
2022/10/29 09:17:10;;;;;;;12.87;7.90;;;21.00;1.00;;;;;;6324381;22;20395;-85
2022/10/29 09:20:00;;;;;;;19.03;9.93;;;21.30;1.00;;;;;;6324699;22;20456;-84
2022/10/29 09:22:44;;;;;;;15.23;9.77;;;21.60;1.00;;;;;;6318048;22;20443;-81
2022/10/29 09:28:21;;;;;;;20.93;9.20;;;21.60;1.00;;;;;;6312549;22;20407;-81
2022/10/29 09:30:58;;;;;;;14.90;8.20;;;21.70;1.00;;;;;;6322318;22;20412;-83
2022/10/29 09:33:39;;;;;;;12.90;8.27;;;21.80;1.00;;;;;;6324440;22;20383;-81
2022/10/29 09:36:17;;;;;;;17.30;8.23;;;21.80;1.00;;;;;;6291788;22;20435;-79
2022/10/29 09:38:58;;;;;;;18.50;9.43;;;22.00;1.00;;;;;;6320022;22;20376;-82
2022/10/29 09:41:38;;;;;;;17.00;8.43;;;22.20;1.00;;;;;;6327796;22;20404;-88
2022/10/29 09:47:28;;;;;;;14.30;8.10;;;22.60;1.00;;;;;;6310266;22;21121;-90
2022/10/29 09:50:09;;;;;;;12.77;8.00;;;22.90;1.00;;;;;;6324200;22;20432;-84
2022/10/29 09:52:45;;;;;;;18.20;9.07;;;23.00;1.00;;;;;;6324750;22;20450;-84
2022/10/29 09:55:20;;;;;;;19.73;9.23;;;23.00;1.00;;;;;;6275588;22;20443;-82
2022/10/29 09:57:49;;;;;;;15.27;7.87;;;23.00;1.00;;;;;;6326726;22;20502;-80
2022/10/29 10:00:23;;;;;;;15.00;7.73;;;23.00;1.00;;;;;;6319275;22;20437;-81
2022/10/29 10:02:57;;;;;;;14.03;7.70;;;22.90;1.00;;;;;;6318797;22;20421;-80
2022/10/29 10:05:28;;;;;;;18.23;9.20;;;22.50;1.00;;;;;;6316347;22;20420;-82
2022/10/29 10:08:15;;;;;;;13.40;6.93;;;22.20;1.00;;;;;;6318927;22;20422;-82
2022/10/29 10:10:58;;;;;;;19.10;8.83;;;22.10;1.00;;;;;;6319998;22;20419;-81
2022/10/29 10:13:38;;;;;;;13.73;7.57;;;22.00;1.00;;;;;;6319829;22;20428;-79
2022/10/29 10:16:07;;;;;;;21.77;9.43;;;21.70;1.00;;;;;;6323363;22;20373;-80
2022/10/29 10:18:42;;;;;;;17.20;7.50;;;21.70;1.00;;;;;;6322144;22;20468;-81
2022/10/29 10:21:10;;;;;;;16.20;7.07;;;21.50;1.00;;;;;;6322982;22;20491;-79
2022/10/29 10:23:50;;;;;;;15.23;7.43;;;21.40;1.00;;;;;;6321978;22;20397;-80
2022/10/29 10:26:41;;;;;;;18.40;9.33;;;21.50;1.00;;;;;;6323388;22;20395;-81
2022/10/29 10:29:20;;;;;;;18.43;8.33;;;21.50;1.00;;;;;;6277861;22;20468;-80
2022/10/29 10:31:49;;;;;;;13.53;7.80;;;21.50;1.00;;;;;;6321867;22;20420;-80
2022/10/29 10:34:23;;;;;;;19.87;8.37;;;21.70;1.00;;;;;;6323870;22;20400;-82
2022/10/29 10:36:57;;;;;;;13.23;7.40;;;22.40;1.00;;;;;;6329747;22;20455;-79
2022/10/29 10:39:29;;;;;;;12.40;7.70;;;23.00;1.00;;;;;;6320811;22;21288;-80
2022/10/29 10:42:00;;;;;;;15.17;7.83;;;23.40;1.00;;;;;;6322829;22;20404;-80
2022/10/29 10:44:30;;;;;;;21.13;8.37;;;23.90;1.00;;;;;;6322621;22;20911;-80
2022/10/29 10:47:08;;;;;;;13.83;7.70;;;23.90;1.00;;;;;;6324199;22;21308;-82
2022/10/29 10:49:37;;;;;;;15.30;7.60;;;23.90;1.00;;;;;;6296339;22;20500;-81
2022/10/29 10:52:17;;;;;;;14.80;7.37;;;24.10;1.00;;;;;;6321122;22;20452;-80
2022/10/29 10:55:00;;;;;;;14.97;7.87;;;24.40;1.00;;;;;;6329656;22;20418;-81
2022/10/29 10:57:36;;;;;;;15.20;8.30;;;24.80;1.00;;;;;;6322674;22;20588;-81
2022/10/29 11:00:19;;;;;;;15.73;8.00;;;25.30;1.00;;;;;;6320475;22;20417;-81
2022/10/29 11:02:56;;;;;;;11.67;6.70;;;25.80;1.00;;;;;;6318437;22;20895;-81
2022/10/29 11:05:36;;;;;;;12.40;6.80;;;26.10;1.00;;;;;;6321926;22;20418;-81
2022/10/29 11:08:16;;;;;;;13.00;6.30;;;26.40;1.00;;;;;;6321339;22;20446;-81
2022/10/29 11:10:50;;;;;;;11.87;6.47;;;26.20;1.00;;;;;;6319559;22;20402;-81
2022/10/29 11:13:27;;;;;;;15.00;7.53;;;26.50;1.00;;;;;;6322748;22;20411;-81
2022/10/29 11:16:09;;;;;;;16.43;7.10;;;26.70;1.00;;;;;;6322844;22;20391;-81
2022/10/29 11:18:41;;;;;;;13.60;7.40;;;26.70;1.00;;;;;;6326063;22;20469;-82
2022/10/29 11:21:17;;;;;;;20.60;9.20;;;26.80;1.00;;;;;;6322547;22;20441;-81
2022/10/29 11:24:04;;;;;;;14.70;6.80;;;26.90;1.00;;;;;;6321620;22;21038;-79
2022/10/29 11:26:41;;;;;;;13.47;7.90;;;27.00;1.00;;;;;;6321392;22;21064;-82
2022/10/29 11:29:22;;;;;;;12.57;6.27;;;27.10;1.00;;;;;;6317705;22;20406;-80
2022/10/29 11:32:09;;;;;;;15.30;7.90;;;27.60;1.00;;;;;;6318332;22;20434;-81
2022/10/29 11:34:48;;;;;;;13.13;6.30;;;28.10;1.00;;;;;;6317028;22;20407;-80
2022/10/29 11:37:27;;;;;;;14.53;7.47;;;27.50;1.00;;;;;;6320506;22;20458;-81
2022/10/29 11:40:18;;;;;;;16.00;7.23;;;26.60;1.00;;;;;;6321021;22;20426;-81
2022/10/29 11:43:02;;;;;;;14.83;6.97;;;25.70;1.00;;;;;;6322662;22;20386;-85
2022/10/29 11:45:46;;;;;;;14.40;7.37;;;25.20;1.00;;;;;;6324483;22;20421;-87
2022/10/29 11:48:37;;;;;;;18.97;7.10;;;25.00;1.00;;;;;;6320766;22;20422;-79
2022/10/29 11:51:16;;;;;;;14.87;7.07;;;25.10;1.00;;;;;;6320314;22;20546;-80
2022/10/29 11:54:06;;;;;;;15.17;8.53;;;25.30;1.00;;;;;;6320638;22;20448;-80
2022/10/29 11:56:48;;;;;;;14.63;6.07;;;25.60;1.00;;;;;;6333558;22;20386;-84
2022/10/29 11:59:37;;;;;;;16.00;8.03;;;25.70;1.00;;;;;;6319776;22;20425;-81
2022/10/29 12:02:22;;;;;;;16.17;7.47;;;26.50;1.00;;;;;;6320474;22;20418;-81
2022/10/29 12:04:59;;;;;;;12.30;7.23;;;27.40;1.00;;;;;;6318305;22;20426;-81
2022/10/29 12:07:42;;;;;;;14.57;8.30;;;28.10;1.00;;;;;;6318951;22;20427;-82
2022/10/29 12:10:36;;;;;;;12.40;7.00;;;28.30;1.00;;;;;;6321579;22;20414;-82
2022/10/29 12:13:10;;;;;;;15.00;7.43;;;27.80;1.00;;;;;;6320565;22;20411;-79
2022/10/29 12:15:48;;;;;;;14.17;7.10;;;27.80;1.00;;;;;;6324943;22;20406;-82
2022/10/29 12:18:24;;;;;;;13.57;6.80;;;28.00;1.00;;;;;;6316987;22;21013;-79
2022/10/29 12:21:01;;;;;;;10.73;5.67;;;28.00;1.00;;;;;;6314469;22;20419;-79
2022/10/29 12:23:40;;;;;;;13.90;6.53;;;27.80;1.00;;;;;;6316655;22;20806;-79
2022/10/29 12:26:12;;;;;;;14.30;6.83;;;27.60;1.00;;;;;;6316391;22;20431;-80
2022/10/29 12:28:50;;;;;;;13.57;7.03;;;27.20;1.00;;;;;;6325784;22;20492;-80
2022/10/29 12:31:28;;;;;;;12.60;7.30;;;27.00;1.00;;;;;;6314918;22;20944;-78
2022/10/29 12:34:01;;;;;;;17.97;7.40;;;26.90;1.00;;;;;;6314599;22;20494;-79
2022/10/29 12:36:36;;;;;;;18.37;7.57;;;27.00;1.00;;;;;;6288503;22;20418;-79
2022/10/29 12:39:05;;;;;;;12.43;6.63;;;26.90;1.00;;;;;;6312578;22;20411;-80
2022/10/29 12:41:40;;;;;;;14.97;7.10;;;26.60;1.00;;;;;;6313751;22;20415;-79
2022/10/29 12:44:17;;;;;;;17.87;7.43;;;26.20;1.00;;;;;;6312853;22;20851;-78
2022/10/29 12:46:51;;;;;;;16.07;7.70;;;25.80;1.00;;;;;;6313473;22;20433;-80
2022/10/29 12:49:23;;;;;;;16.10;7.70;;;25.70;1.00;;;;;;6315507;22;20517;-80
2022/10/29 12:51:55;;;;;;;18.20;9.13;;;25.50;1.00;;;;;;6313809;22;20458;-78
2022/10/29 12:54:41;;;;;;;15.63;8.03;;;25.20;1.00;;;;;;6315833;22;20484;-78
2022/10/29 12:57:27;;;;;;;14.20;8.33;;;25.00;1.00;;;;;;6313989;22;20441;-78
2022/10/29 12:59:54;;;;;;;13.50;8.03;;;25.20;1.00;;;;;;6313363;22;20401;-79
2022/10/29 13:02:43;;;;;;;12.47;7.57;;;25.70;1.00;;;;;;6314436;22;20427;-80
2022/10/29 13:05:16;;;;;;;16.07;7.90;;;26.70;1.00;;;;;;6312909;22;20505;-79
2022/10/29 13:08:23;;;;;;;15.43;7.67;;;27.80;1.00;;;;;;6313451;22;20434;-81
2022/10/29 13:10:57;;;;;;;11.73;7.33;;;28.10;1.00;;;;;;6304069;22;20418;-80
2022/10/29 13:13:42;;;;;;;15.37;7.63;;;27.60;1.00;;;;;;6315162;22;20423;-80
2022/10/29 13:16:15;;;;;;;15.80;7.73;;;27.00;1.00;;;;;;6315005;22;20418;-80
2022/10/29 13:19:01;;;;;;;17.57;8.10;;;26.40;1.00;;;;;;6314657;22;20445;-80
2022/10/29 13:22:00;;;;;;;13.77;8.17;;;26.10;1.00;;;;;;6315252;22;20493;-82
2022/10/29 13:24:29;;;;;;;18.77;10.07;;;25.70;1.00;;;;;;6315885;22;20514;-80
2022/10/29 13:27:00;;;;;;;15.10;8.77;;;25.30;1.00;;;;;;6312516;22;20426;-80
2022/10/29 13:29:41;;;;;;;16.00;7.57;;;25.00;1.00;;;;;;6316346;22;20500;-80
2022/10/29 13:32:08;;;;;;;13.73;7.80;;;24.50;1.00;;;;;;6309916;22;20395;-79
2022/10/29 13:34:52;;;;;;;18.77;8.37;;;24.20;1.00;;;;;;6315053;22;20422;-80